createdAt,value
2018-09-29T00:01:21.869Z,3.00
2018-09-29T00:03:50.374Z,2.60
2018-09-29T00:06:18.769Z,2.03
2018-09-29T00:08:47.125Z,2.90
2018-09-29T00:11:15.538Z,2.00
2018-09-29T00:13:44.085Z,1.90
2018-09-29T00:16:12.458Z,3.03
2018-09-29T00:18:40.822Z,2.90
2018-09-29T00:21:09.195Z,3.03
2018-09-29T00:23:37.620Z,2.52
2018-09-29T00:26:06.002Z,2.80
2018-09-29T00:28:34.403Z,2.17
2018-09-29T00:31:02.808Z,3.47
2018-09-29T00:33:31.228Z,3.10
2018-09-29T00:35:59.656Z,2.70
2018-09-29T00:38:28.193Z,2.57
2018-09-29T00:40:56.664Z,2.47
2018-09-29T00:43:25.059Z,2.42
2018-09-29T00:45:53.449Z,2.77
2018-09-29T00:48:21.827Z,2.23
2018-09-29T00:50:51.051Z,2.50
2018-09-29T00:53:19.452Z,2.53
2018-09-29T00:55:47.865Z,2.47
2018-09-29T00:58:16.237Z,2.80
2018-09-29T01:00:44.628Z,3.12
2018-09-29T01:03:13.015Z,3.72
2018-09-29T01:05:41.602Z,3.00
2018-09-29T01:08:09.984Z,3.37
2018-09-29T01:10:38.399Z,4.10
2018-09-29T01:13:07.064Z,3.67
2018-09-29T01:15:35.469Z,4.62
2018-09-29T01:18:03.820Z,3.30
2018-09-29T01:20:32.272Z,3.83
2018-09-29T01:23:00.667Z,3.20
2018-09-29T01:25:29.061Z,3.47
2018-09-29T01:27:57.476Z,3.85
2018-09-29T01:30:26.366Z,3.27
2018-09-29T01:32:54.779Z,4.00
2018-09-29T01:35:23.201Z,3.15
2018-09-29T01:37:52.320Z,3.60
2018-09-29T01:40:20.844Z,3.50
2018-09-29T01:42:49.290Z,3.30
2018-09-29T01:45:17.694Z,3.52
2018-09-29T01:47:46.132Z,3.70
2018-09-29T01:50:14.537Z,3.10
2018-09-29T01:52:42.997Z,3.20
2018-09-29T01:55:11.469Z,3.10
2018-09-29T01:57:39.889Z,3.97
2018-09-29T02:00:08.417Z,3.53
2018-09-29T02:02:36.893Z,3.40
2018-09-29T02:05:05.351Z,3.37
2018-09-29T02:07:34.312Z,3.23
2018-09-29T02:10:02.803Z,2.57
2018-09-29T02:12:31.229Z,3.50
2018-09-29T02:14:59.572Z,2.70
2018-09-29T02:17:27.965Z,3.93
2018-09-29T02:19:56.375Z,3.20
2018-09-29T02:22:24.745Z,2.90
2018-09-29T02:24:53.160Z,3.30
2018-09-29T02:27:21.546Z,3.45
2018-09-29T02:29:49.956Z,3.40
2018-09-29T02:32:18.419Z,4.63
2018-09-29T02:34:46.841Z,2.90
2018-09-29T02:37:15.559Z,4.37
2018-09-29T02:39:44.337Z,3.00
2018-09-29T02:42:12.777Z,2.62
2018-09-29T02:44:41.201Z,3.40
2018-09-29T02:47:09.565Z,2.67
2018-09-29T02:49:37.927Z,2.80
2018-09-29T02:52:06.406Z,3.10
2018-09-29T02:54:34.789Z,2.75
2018-09-29T02:57:03.650Z,3.57
2018-09-29T02:59:32.598Z,3.23
2018-09-29T03:02:01.817Z,3.58
2018-09-29T03:04:30.273Z,4.07
2018-09-29T03:06:58.676Z,2.85
2018-09-29T03:09:27.113Z,3.00
2018-09-29T03:11:55.573Z,2.70
2018-09-29T03:14:23.962Z,2.47
2018-09-29T03:16:52.350Z,3.30
2018-09-29T03:19:20.767Z,2.30
2018-09-29T03:21:49.173Z,3.00
2018-09-29T03:24:17.795Z,2.80
2018-09-29T03:26:46.250Z,2.53
2018-09-29T03:29:14.643Z,3.00
2018-09-29T03:31:43.241Z,2.97
2018-09-29T03:34:11.772Z,3.33
2018-09-29T03:36:40.201Z,3.17
2018-09-29T03:39:10.159Z,2.87
2018-09-29T03:41:39.774Z,2.65
2018-09-29T03:44:08.686Z,3.17
2018-09-29T03:46:37.092Z,2.83
2018-09-29T03:49:06.532Z,3.10
2018-09-29T03:51:35.145Z,2.87
2018-09-29T03:54:03.817Z,2.95
2018-09-29T03:56:32.445Z,2.83
2018-09-29T03:59:00.949Z,4.17
2018-09-29T04:01:29.384Z,2.80
2018-09-29T04:03:58.026Z,3.87
2018-09-29T04:06:26.518Z,2.45
2018-09-29T04:08:54.872Z,2.60
2018-09-29T04:11:23.275Z,3.15
2018-09-29T04:13:51.873Z,3.07
2018-09-29T04:16:20.395Z,2.95
2018-09-29T04:18:49.754Z,3.33
2018-09-29T04:21:18.100Z,3.10
2018-09-29T04:23:47.241Z,4.67
2018-09-29T04:26:15.655Z,2.60
2018-09-29T04:28:44.334Z,5.10
2018-09-29T04:31:12.876Z,3.30
2018-09-29T04:33:41.509Z,2.65
2018-09-29T04:36:09.865Z,2.72
2018-09-29T04:38:38.468Z,3.10
2018-09-29T04:41:07.183Z,3.87
2018-09-29T04:43:35.584Z,2.53
2018-09-29T04:46:04.676Z,2.87
2018-09-29T04:48:33.705Z,3.50
2018-09-29T04:51:02.453Z,2.90
2018-09-29T04:53:30.884Z,3.63
2018-09-29T04:55:59.358Z,2.83
2018-09-29T04:58:27.966Z,3.00
2018-09-29T05:00:56.418Z,2.70
2018-09-29T05:03:24.862Z,3.47
2018-09-29T05:05:54.079Z,3.33
2018-09-29T05:08:24.289Z,3.12
2018-09-29T05:10:52.646Z,3.42
2018-09-29T05:13:21.125Z,3.10
2018-09-29T05:15:49.527Z,3.10
2018-09-29T05:18:17.913Z,3.37
2018-09-29T05:20:46.407Z,2.85
2018-09-29T05:23:14.834Z,3.57
2018-09-29T05:25:44.426Z,2.80
2018-09-29T05:28:12.860Z,3.07
2018-09-29T05:30:41.227Z,3.10
2018-09-29T05:33:09.637Z,3.07
2018-09-29T05:35:38.021Z,3.30
2018-09-29T05:38:07.309Z,3.12
2018-09-29T05:40:36.143Z,2.70
2018-09-29T05:43:04.540Z,2.60
2018-09-29T05:45:32.971Z,3.17
2018-09-29T05:48:01.317Z,3.60
2018-09-29T05:50:29.749Z,3.00
2018-09-29T05:52:58.184Z,2.87
2018-09-29T05:55:27.414Z,3.65
2018-09-29T05:57:56.161Z,3.40
2018-09-29T06:00:25.110Z,3.80
2018-09-29T06:02:53.487Z,3.52
2018-09-29T06:05:21.891Z,3.30
2018-09-29T06:07:51.061Z,3.65
2018-09-29T06:10:19.493Z,3.80
2018-09-29T06:12:47.944Z,3.20
2018-09-29T06:15:16.633Z,3.60
2018-09-29T06:17:45.037Z,3.53
2018-09-29T06:20:13.475Z,4.43
2018-09-29T06:22:41.834Z,3.83
2018-09-29T06:25:10.881Z,4.43
2018-09-29T06:27:40.021Z,3.20
2018-09-29T06:30:08.488Z,3.83
2018-09-29T06:32:37.433Z,3.20
2018-09-29T06:35:06.975Z,3.87
2018-09-29T06:37:35.377Z,3.40
2018-09-29T06:40:03.761Z,3.60
2018-09-29T06:42:32.177Z,2.80
2018-09-29T06:45:01.727Z,3.30
2018-09-29T06:47:30.178Z,4.20
2018-09-29T06:49:58.585Z,3.17
2018-09-29T06:52:27.042Z,3.13
2018-09-29T06:54:55.410Z,3.77
2018-09-29T06:57:24.539Z,5.17
2018-09-29T06:59:52.874Z,4.80
2018-09-29T07:02:21.338Z,3.30
2018-09-29T07:04:49.737Z,3.90
2018-09-29T07:07:18.178Z,3.35
2018-09-29T07:09:46.614Z,4.10
2018-09-29T07:12:14.985Z,3.50
2018-09-29T07:14:43.355Z,3.40
2018-09-29T07:17:11.762Z,3.60
2018-09-29T07:19:40.399Z,3.67
2018-09-29T07:22:08.871Z,3.47
2018-09-29T07:24:37.271Z,3.95
2018-09-29T07:27:05.773Z,3.30
2018-09-29T07:29:34.231Z,3.58
2018-09-29T07:32:03.088Z,3.80
2018-09-29T07:34:32.237Z,3.40
2018-09-29T07:37:01.003Z,3.70
2018-09-29T07:39:29.715Z,3.75
2018-09-29T07:41:58.416Z,3.20
2018-09-29T07:44:26.911Z,3.03
2018-09-29T07:46:55.638Z,3.98
2018-09-29T07:49:24.378Z,3.52
2018-09-29T07:51:53.296Z,3.30
2018-09-29T07:54:22.909Z,3.62
2018-09-29T07:56:52.349Z,3.35
2018-09-29T07:59:21.158Z,4.10
2018-09-29T08:19:08.709Z,3.17
2018-09-29T08:21:37.635Z,2.90
2018-09-29T08:24:06.395Z,3.57
2018-09-29T08:26:34.896Z,3.20
2018-09-29T08:29:03.280Z,3.03
2018-09-29T08:31:31.955Z,2.77
2018-09-29T08:34:00.457Z,3.20
2018-09-29T08:36:29.329Z,3.70
2018-09-29T08:39:06.176Z,3.20
2018-09-29T08:41:34.681Z,2.35
2018-09-29T08:44:03.373Z,2.77
2018-09-29T08:46:31.873Z,2.47
2018-09-29T08:49:00.531Z,3.43
2018-09-29T08:51:29.335Z,2.80
2018-09-29T08:53:58.902Z,2.10
2018-09-29T08:56:27.500Z,2.33
2018-09-29T08:58:55.925Z,2.70
2018-09-29T09:01:24.463Z,2.58
2018-09-29T09:03:53.219Z,2.27
2018-09-29T09:06:22.086Z,2.30
2018-09-29T09:08:50.885Z,2.23
2018-09-29T09:11:19.267Z,1.97
2018-09-29T09:13:47.894Z,2.10
2018-09-29T09:16:16.710Z,2.43
2018-09-29T09:18:45.308Z,2.12
2018-09-29T09:21:13.862Z,2.80
2018-09-29T09:23:42.660Z,2.40
2018-09-29T09:26:11.295Z,2.10
2018-09-29T09:28:40.072Z,2.10
2018-09-29T09:31:08.955Z,2.40
2018-09-29T09:33:37.645Z,2.40
2018-09-29T09:36:06.508Z,1.87
2018-09-29T09:38:34.997Z,2.30
2018-09-29T09:41:03.394Z,2.60
2018-09-29T09:43:32.676Z,2.40
2018-09-29T09:46:01.027Z,1.82
2018-09-29T09:48:29.423Z,2.20
2018-09-29T09:50:58.136Z,2.10
2018-09-29T09:53:26.747Z,2.00
2018-09-29T09:55:55.890Z,2.13
2018-09-29T09:58:24.572Z,2.17
2018-09-29T10:03:04.585Z,1.53
2018-09-29T10:05:33.306Z,1.80
2018-09-29T10:08:01.799Z,1.98
2018-09-29T10:10:30.270Z,1.53
2018-09-29T10:12:58.777Z,1.82
2018-09-29T10:15:27.203Z,1.60
2018-09-29T10:17:55.655Z,1.70
2018-09-29T10:20:24.164Z,1.50
2018-09-29T10:22:52.653Z,1.67
2018-09-29T10:25:21.066Z,2.20
2018-09-29T10:27:49.534Z,1.70
2018-09-29T10:30:17.953Z,1.63
2018-09-29T10:32:46.378Z,1.40
2018-09-29T10:35:15.011Z,1.60
2018-09-29T10:37:43.526Z,1.50
2018-09-29T10:40:12.032Z,2.37
2018-09-29T10:42:40.434Z,1.90
2018-09-29T10:45:12.325Z,2.00
2018-09-29T10:47:42.199Z,1.67
2018-09-29T10:50:11.283Z,2.22
2018-09-29T10:52:40.017Z,1.50
2018-09-29T10:55:08.592Z,1.57
2018-09-29T10:57:36.988Z,1.60
2018-09-29T11:00:06.356Z,1.80
2018-09-29T11:02:35.044Z,2.22
2018-09-29T11:05:03.854Z,2.07
2018-09-29T11:07:32.265Z,1.53
2018-09-29T11:10:00.903Z,1.85
2018-09-29T11:12:29.326Z,1.83
2018-09-29T11:14:57.876Z,2.07
2018-09-29T11:17:26.323Z,2.30
2018-09-29T11:19:54.741Z,1.70
2018-09-29T11:22:23.159Z,1.50
2018-09-29T11:24:51.454Z,2.00
2018-09-29T11:27:19.821Z,2.20
2018-09-29T11:29:48.232Z,2.08
2018-09-29T11:32:16.565Z,1.37
2018-09-29T11:34:45.007Z,1.77
2018-09-29T11:37:14.637Z,1.87
2018-09-29T11:39:43.927Z,1.87
2018-09-29T11:42:13.157Z,1.60
2018-09-29T11:44:41.566Z,1.42
2018-09-29T11:47:12.084Z,1.40
2018-09-29T11:49:40.809Z,1.30
2018-09-29T11:52:16.352Z,1.50
2018-09-29T11:54:45.020Z,1.37
2018-09-29T11:57:13.490Z,1.35
2018-09-29T11:59:41.888Z,1.30
2018-09-29T12:02:10.922Z,2.00
2018-09-29T12:04:39.589Z,1.40
2018-09-29T12:07:08.224Z,1.17
2018-09-29T12:09:36.579Z,1.50
2018-09-29T12:12:04.963Z,1.30
2018-09-29T12:14:33.396Z,1.30
2018-09-29T12:17:01.804Z,1.10
2018-09-29T12:19:30.699Z,1.30
2018-09-29T12:21:59.736Z,1.50
2018-09-29T12:24:28.143Z,1.23
2018-09-29T12:26:56.547Z,1.07
2018-09-29T12:29:24.931Z,1.20
2018-09-29T12:31:53.292Z,1.37
2018-09-29T12:34:21.668Z,1.35
2018-09-29T12:36:50.418Z,1.37
2018-09-29T12:39:18.717Z,1.50
2018-09-29T12:41:47.111Z,1.10
2018-09-29T12:44:15.604Z,1.17
2018-09-29T12:46:46.979Z,1.40
2018-09-29T12:49:15.402Z,1.43
2018-09-29T12:51:43.877Z,1.30
2018-09-29T12:54:12.252Z,1.57
2018-09-29T12:56:40.708Z,1.10
2018-09-29T12:59:09.180Z,1.65
2018-09-29T13:01:37.875Z,1.80
2018-09-29T13:04:06.594Z,1.53
2018-09-29T13:06:35.338Z,1.70
2018-09-29T13:09:05.088Z,1.90
2018-09-29T13:11:33.558Z,1.50
2018-09-29T13:14:01.920Z,1.40
2018-09-29T13:16:30.467Z,1.50
2018-09-29T13:18:59.350Z,1.53
2018-09-29T13:21:27.787Z,1.30
2018-09-29T13:23:56.419Z,1.37
2018-09-29T13:26:25.451Z,1.40
2018-09-29T13:28:53.886Z,1.30
2018-09-29T13:31:22.302Z,1.47
2018-09-29T13:33:50.715Z,1.30
2018-09-29T13:36:19.703Z,1.60
2018-09-29T13:38:49.899Z,2.60
2018-09-29T13:41:18.295Z,1.30
2018-09-29T13:43:46.674Z,1.53
2018-09-29T13:46:15.066Z,1.57
2018-09-29T13:48:43.465Z,1.60
2018-09-29T13:51:11.836Z,1.30
2018-09-29T13:53:41.471Z,1.40
2018-09-29T13:56:10.165Z,1.30
2018-09-29T13:58:38.624Z,1.80
2018-09-29T14:01:07.003Z,1.63
2018-09-29T14:03:35.371Z,1.33
2018-09-29T14:06:03.789Z,1.37
2018-09-29T14:08:32.316Z,1.13
2018-09-29T14:11:00.629Z,1.30
2018-09-29T14:13:29.113Z,1.47
2018-09-29T14:15:57.761Z,1.50
2018-09-29T14:18:27.043Z,1.30
2018-09-29T14:20:55.546Z,1.20
2018-09-29T14:23:24.650Z,1.00
2018-09-29T14:25:53.023Z,1.50
2018-09-29T14:28:21.484Z,1.00
2018-09-29T14:30:50.519Z,1.33
2018-09-29T14:33:19.067Z,1.17
2018-09-29T14:35:47.701Z,1.33
2018-09-29T14:38:16.058Z,1.20
2018-09-29T14:40:44.464Z,1.13
2018-09-29T14:43:13.073Z,1.00
2018-09-29T14:45:41.691Z,1.10
2018-09-29T14:48:10.493Z,1.20
2018-09-29T14:50:39.056Z,1.30
2018-09-29T14:53:07.732Z,1.20
2018-09-29T14:55:36.396Z,1.00
2018-09-29T14:58:05.734Z,1.83
2018-09-29T15:00:34.123Z,1.30
2018-09-29T15:03:02.564Z,1.30
2018-09-29T15:05:31.080Z,1.10
2018-09-29T15:08:01.239Z,1.20
2018-09-29T15:10:29.764Z,1.00
2018-09-29T15:13:00.316Z,1.00
2018-09-29T15:15:29.009Z,1.27
2018-09-29T15:17:57.424Z,1.10
2018-09-29T15:20:25.935Z,1.30
2018-09-29T15:22:54.264Z,1.30
2018-09-29T15:25:22.915Z,1.42
2018-09-29T15:27:51.333Z,1.30
2018-09-29T15:30:20.110Z,1.43
2018-09-29T15:32:48.496Z,1.30
2018-09-29T15:35:16.914Z,1.70
2018-09-29T15:37:45.311Z,1.37
2018-09-29T15:40:14.170Z,1.70
2018-09-29T15:42:42.743Z,1.50
2018-09-29T15:45:11.392Z,1.50
2018-09-29T15:47:40.694Z,1.20
2018-09-29T15:50:09.115Z,1.27
2018-09-29T15:52:37.547Z,1.30
2018-09-29T15:55:05.987Z,1.13
2018-09-29T15:57:34.352Z,1.50
2018-09-29T16:00:02.805Z,1.10
2018-09-29T16:02:31.268Z,1.30
2018-09-29T16:04:59.692Z,1.60
2018-09-29T16:07:28.135Z,1.47
2018-09-29T16:09:57.495Z,2.13
2018-09-29T16:12:25.940Z,2.07
2018-09-29T16:14:54.435Z,3.53
2018-09-29T16:17:22.893Z,2.33
2018-09-29T16:19:51.347Z,1.90
2018-09-29T16:22:20.168Z,1.40
2018-09-29T16:24:49.254Z,1.62
2018-09-29T16:27:17.699Z,1.60
2018-09-29T16:29:46.132Z,1.60
2018-09-29T16:32:14.524Z,1.80
2018-09-29T16:34:42.888Z,1.10
2018-09-29T16:37:11.310Z,1.30
2018-09-29T16:39:40.606Z,1.30
2018-09-29T16:42:09.410Z,1.57
2018-09-29T16:44:37.872Z,1.30
2018-09-29T16:47:06.392Z,1.97
2018-09-29T16:49:35.450Z,1.60
2018-09-29T16:52:03.957Z,1.27
2018-09-29T16:54:32.827Z,1.30
2018-09-29T16:57:01.268Z,1.60
2018-09-29T16:59:29.674Z,1.45
2018-09-29T17:01:59.519Z,1.50
2018-09-29T17:04:28.716Z,1.13
2018-09-29T17:06:57.515Z,1.10
2018-09-29T17:09:25.902Z,1.50
2018-09-29T17:11:54.515Z,1.13
2018-09-29T17:14:23.041Z,1.50
2018-09-29T17:16:52.523Z,1.30
2018-09-29T17:19:21.525Z,1.67
2018-09-29T17:21:50.053Z,1.40
2018-09-29T17:24:18.508Z,1.85
2018-09-29T17:26:47.020Z,1.80
2018-09-29T17:29:15.627Z,1.70
2018-09-29T17:31:44.085Z,1.70
2018-09-29T17:34:12.535Z,1.30
2018-09-29T17:36:40.945Z,1.30
2018-09-29T17:39:10.643Z,1.47
2018-09-29T17:41:39.257Z,1.63
2018-09-29T17:44:07.997Z,1.80
2018-09-29T17:46:36.527Z,2.40
2018-09-29T17:49:05.670Z,4.10
2018-09-29T17:51:34.192Z,5.23
2018-09-29T17:54:02.947Z,2.67
2018-09-29T17:56:31.653Z,2.03
2018-09-29T17:59:02.019Z,2.17
2018-09-29T18:01:30.428Z,1.70
2018-09-29T18:03:59.003Z,2.13
2018-09-29T18:06:27.608Z,1.90
2018-09-29T18:08:56.032Z,2.35
2018-09-29T18:11:24.827Z,2.20
2018-09-29T18:13:53.312Z,2.43
2018-09-29T18:16:21.769Z,1.60
2018-09-29T18:18:50.428Z,2.00
2018-09-29T18:21:19.243Z,3.77
2018-09-29T18:23:48.776Z,8.60
2018-09-29T18:26:17.300Z,5.33
2018-09-29T18:28:46.032Z,3.20
2018-09-29T18:31:14.508Z,2.70
2018-09-29T18:33:49.236Z,2.10
2018-09-29T18:36:17.995Z,2.08
2018-09-29T18:38:47.398Z,2.75
2018-09-29T18:41:15.933Z,2.87
2018-09-29T18:43:44.560Z,1.70
2018-09-29T18:46:13.098Z,3.00
2018-09-29T18:48:42.138Z,2.70
2018-09-29T18:51:10.737Z,3.30
2018-09-29T18:53:39.204Z,2.57
2018-09-29T18:56:12.070Z,1.83
2018-09-29T18:58:40.698Z,2.23
2018-09-29T19:01:09.163Z,2.33
2018-09-29T19:03:37.722Z,2.27
2018-09-29T19:06:06.920Z,1.97
2018-09-29T19:08:35.762Z,1.80
2018-09-29T19:11:04.318Z,2.63
2018-09-29T19:13:32.805Z,2.70
2018-09-29T19:16:01.436Z,2.27
2018-09-29T19:18:29.980Z,2.17
2018-09-29T19:20:58.506Z,2.13
2018-09-29T19:23:26.920Z,2.37
2018-09-29T19:25:55.373Z,2.17
2018-09-29T19:28:24.670Z,1.53
2018-09-29T19:30:53.105Z,1.90
2018-09-29T19:33:21.660Z,2.03
2018-09-29T19:35:50.169Z,1.90
2018-09-29T19:38:18.640Z,2.00
2018-09-29T19:40:47.192Z,2.80
2018-09-29T19:43:16.863Z,2.67
2018-09-29T19:45:45.844Z,2.27
2018-09-29T19:48:14.254Z,2.50
2018-09-29T19:50:42.892Z,2.10
2018-09-29T19:53:11.577Z,4.37
2018-09-29T19:55:40.080Z,3.80
2018-09-29T19:58:08.524Z,4.67
2018-09-29T20:00:37.026Z,5.35
2018-09-29T20:03:05.184Z,4.50
2018-09-29T20:05:33.809Z,2.92
2018-09-29T20:08:10.495Z,3.23
2018-09-29T20:10:39.155Z,4.53
2018-09-29T20:13:07.778Z,4.40
2018-09-29T20:15:36.309Z,5.70
2018-09-29T20:18:04.768Z,6.50
2018-09-29T20:20:35.862Z,6.70
2018-09-29T20:23:21.696Z,6.19
2018-09-29T20:25:50.434Z,4.70
2018-09-29T20:28:19.636Z,4.77
2018-09-29T20:30:48.107Z,4.30
2018-09-29T20:33:16.823Z,3.35
2018-09-29T20:35:45.404Z,4.33
2018-09-29T20:38:13.820Z,6.00
2018-09-29T20:40:42.353Z,5.50
2018-09-29T20:43:10.845Z,3.83
2018-09-29T20:45:39.495Z,3.90
2018-09-29T20:48:08.896Z,3.90
2018-09-29T20:50:37.384Z,3.50
2018-09-29T20:53:05.922Z,2.97
2018-09-29T20:55:36.298Z,3.77
2018-09-29T20:58:04.765Z,3.00
2018-09-29T21:00:33.277Z,3.50
2018-09-29T21:03:01.769Z,2.80
2018-09-29T21:05:30.212Z,2.73
2018-09-29T21:07:58.697Z,3.90
2018-09-29T21:10:27.157Z,3.90
2018-09-29T21:13:02.194Z,3.87
2018-09-29T21:15:30.851Z,4.50
2018-09-29T21:17:59.470Z,4.43
2018-09-29T21:20:27.940Z,4.03
2018-09-29T21:22:56.426Z,4.30
2018-09-29T21:25:25.074Z,3.90
2018-09-29T21:27:53.488Z,4.37
2018-09-29T21:30:22.184Z,4.73
2018-09-29T21:32:51.583Z,3.90
2018-09-29T21:35:20.197Z,3.53
2018-09-29T21:37:48.799Z,4.00
2018-09-29T21:40:17.592Z,2.60
2018-09-29T21:42:46.026Z,3.37
2018-09-29T21:45:14.521Z,3.22
2018-09-29T21:47:43.252Z,3.70
2018-09-29T21:50:11.763Z,3.15
2018-09-29T21:52:40.139Z,3.43
2018-09-29T21:55:08.600Z,3.47
2018-09-29T21:57:37.053Z,3.90
2018-09-29T22:00:05.625Z,4.60
2018-09-29T22:02:34.209Z,4.23
2018-09-29T22:05:13.277Z,4.35
2018-09-29T22:08:13.118Z,3.52
2018-09-29T22:10:41.651Z,3.70
2018-09-29T22:13:10.077Z,4.00
2018-09-29T22:15:41.142Z,4.00
2018-09-29T22:18:09.531Z,3.47
2018-09-29T22:20:37.988Z,3.70
2018-09-29T22:23:12.598Z,3.50
2018-09-29T22:25:52.051Z,3.62
2018-09-29T22:28:21.864Z,4.50
2018-09-29T22:30:55.151Z,6.00
2018-09-29T22:33:23.618Z,5.83
2018-09-29T22:35:52.074Z,5.53
2018-09-29T22:38:20.595Z,5.45
2018-09-29T22:40:49.027Z,6.10
2018-09-29T22:43:17.721Z,6.35
2018-09-29T22:45:46.182Z,6.23
2018-09-29T22:48:14.637Z,7.00
2018-09-29T22:50:43.129Z,6.30
2018-09-29T22:53:11.645Z,6.12
2018-09-29T22:55:40.080Z,6.20
2018-09-29T22:58:08.733Z,6.60
2018-09-29T23:00:37.381Z,6.17
2018-09-29T23:03:05.865Z,6.27
2018-09-29T23:05:34.325Z,6.30
2018-09-29T23:08:02.775Z,5.63
2018-09-29T23:10:31.199Z,6.20
2018-09-29T23:12:59.639Z,5.30
2018-09-29T23:15:58.993Z,5.20
2018-09-29T23:18:27.412Z,4.50
2018-09-29T23:20:55.861Z,4.53
2018-09-29T23:23:24.280Z,4.70
2018-09-29T23:25:52.788Z,4.07
2018-09-29T23:28:21.723Z,3.90
2018-09-29T23:30:50.414Z,3.23
2018-09-29T23:33:18.854Z,3.80
2018-09-29T23:35:47.289Z,3.70
2018-09-29T23:38:15.685Z,3.55
2018-09-29T23:40:44.158Z,3.63
2018-09-29T23:43:12.626Z,3.37
2018-09-29T23:45:41.149Z,3.80
2018-09-29T23:48:09.547Z,3.37
2018-09-29T23:50:37.999Z,3.60
2018-09-29T23:53:06.564Z,3.20
2018-09-29T23:55:35.049Z,3.63
2018-09-29T23:58:03.649Z,3.47
